createdAt,value
2022-10-01T00:02:20.953Z,99955.03
2022-10-01T00:04:52.196Z,99937.59
2022-10-01T00:07:23.828Z,99948.03
2022-10-01T00:09:55.081Z,99937.47
2022-10-01T00:12:26.340Z,99931.47
2022-10-01T00:14:57.594Z,99939.25
2022-10-01T00:17:29.498Z,99931.38
2022-10-01T00:20:01.037Z,99920.69
2022-10-01T00:22:37.205Z,99911.13
2022-10-01T00:25:08.597Z,99921.56
2022-10-01T00:27:40.781Z,99917.97
2022-10-01T00:30:12.329Z,99909.97
2022-10-01T00:32:43.616Z,99907.41
2022-10-01T00:35:15.048Z,99900.25
2022-10-01T00:37:50.463Z,99897.50
2022-10-01T00:40:22.612Z,99900.09
2022-10-01T00:42:53.957Z,99886.25
2022-10-01T00:45:25.359Z,99886.09
2022-10-01T00:47:59.197Z,99874.00
2022-10-01T00:50:34.052Z,99880.94
2022-10-01T00:53:08.230Z,99875.72
2022-10-01T00:55:51.975Z,99872.25
2022-10-01T00:58:24.785Z,99864.44
2022-10-01T01:00:57.196Z,99868.81
2022-10-01T01:03:29.034Z,99856.75
2022-10-01T01:06:00.299Z,99862.75
2022-10-01T01:08:32.412Z,99860.09
2022-10-01T01:11:15.489Z,99854.84
2022-10-01T01:14:08.463Z,99844.19
2022-10-01T01:16:51.496Z,99836.34
2022-10-01T01:19:41.136Z,99841.44
2022-10-01T01:22:14.697Z,99837.91
2022-10-01T01:24:59.483Z,99842.09
2022-10-01T01:27:42.321Z,99829.63
2022-10-01T01:30:17.484Z,99825.19
2022-10-01T01:33:03.014Z,99817.13
2022-10-01T01:35:41.531Z,99817.91
2022-10-01T01:38:24.304Z,99801.94
2022-10-01T01:41:00.337Z,99807.19
2022-10-01T01:43:36.102Z,99803.56
2022-10-01T01:46:10.945Z,99794.78
2022-10-01T01:48:49.366Z,99791.94
2022-10-01T01:51:31.361Z,99774.47
2022-10-01T01:54:03.132Z,99783.00
2022-10-01T01:56:35.608Z,99768.97
2022-10-01T01:59:08.397Z,99762.75
2022-10-01T02:01:41.699Z,99765.19
2022-10-01T02:04:20.527Z,99759.06
2022-10-01T02:07:08.690Z,99750.94
2022-10-01T02:10:10.361Z,99751.78
2022-10-01T02:13:01.784Z,99733.44
2022-10-01T02:15:41.493Z,99741.88
2022-10-01T02:18:23.741Z,99735.59
2022-10-01T02:21:09.909Z,99743.44
2022-10-01T02:23:46.784Z,99723.00
2022-10-01T02:26:20.969Z,99724.69
2022-10-01T02:28:55.334Z,99730.75
2022-10-01T02:31:29.933Z,99715.66
2022-10-01T02:34:04.387Z,99711.16
2022-10-01T02:36:38.573Z,99709.41
2022-10-01T02:39:11.375Z,99710.13
2022-10-01T02:41:45.654Z,99708.22
2022-10-01T02:44:21.148Z,99690.63
2022-10-01T02:47:02.806Z,99692.13
2022-10-01T02:49:36.266Z,99683.25
2022-10-01T02:52:27.242Z,99688.44
2022-10-01T02:55:10.210Z,99659.63
2022-10-01T02:57:42.090Z,99669.97
2022-10-01T03:00:21.134Z,99673.38
2022-10-01T03:02:53.376Z,99669.56
2022-10-01T03:05:24.982Z,99672.16
2022-10-01T03:07:56.425Z,99678.28
2022-10-01T03:10:27.809Z,99674.66
2022-10-01T03:13:01.644Z,99671.94
2022-10-01T03:15:33.276Z,99664.78
2022-10-01T03:18:04.522Z,99663.72
2022-10-01T03:20:35.823Z,99672.47
2022-10-01T03:23:07.094Z,99664.50
2022-10-01T03:25:38.810Z,99649.75
2022-10-01T03:28:10.161Z,99656.88
2022-10-01T03:30:41.638Z,99658.59
2022-10-01T03:33:12.902Z,99662.13
2022-10-01T03:35:44.131Z,99654.38
2022-10-01T03:38:15.384Z,99635.44
2022-10-01T03:40:46.755Z,99630.47
2022-10-01T03:43:18.017Z,99634.97
2022-10-01T03:45:49.320Z,99641.44
2022-10-01T03:48:21.109Z,99638.06
2022-10-01T03:50:57.635Z,99639.22
2022-10-01T03:53:29.109Z,99641.13
2022-10-01T03:56:01.801Z,99630.66
2022-10-01T03:58:33.787Z,99618.63
2022-10-01T04:01:05.065Z,99619.44
2022-10-01T04:03:36.661Z,99619.44
2022-10-01T04:06:07.925Z,99619.56
2022-10-01T04:08:39.683Z,99601.16
2022-10-01T04:11:11.441Z,99569.16
2022-10-01T04:13:42.702Z,99595.19
2022-10-01T04:16:15.592Z,99565.53
2022-10-01T04:18:46.988Z,99568.06
2022-10-01T04:21:18.237Z,99549.84
2022-10-01T04:23:50.191Z,99556.66
2022-10-01T04:26:21.482Z,99539.22
2022-10-01T04:28:52.822Z,99530.28
2022-10-01T04:31:24.330Z,99515.66
2022-10-01T04:33:57.394Z,99518.25
2022-10-01T04:36:28.744Z,99502.78
2022-10-01T04:39:02.551Z,99506.16
2022-10-01T04:41:34.559Z,99511.56
2022-10-01T04:44:06.222Z,99500.13
2022-10-01T04:46:37.517Z,99504.63
2022-10-01T04:49:08.802Z,99466.41
2022-10-01T04:51:40.041Z,99494.03
2022-10-01T04:54:11.284Z,99493.09
2022-10-01T04:56:42.525Z,99485.16
2022-10-01T04:59:13.797Z,99467.69
2022-10-01T05:01:45.953Z,99467.59
2022-10-01T05:04:17.308Z,99467.66
2022-10-01T05:06:48.611Z,99450.28
2022-10-01T05:09:19.852Z,99466.78
2022-10-01T05:11:51.986Z,99457.09
2022-10-01T05:14:23.330Z,99453.53
2022-10-01T05:16:54.572Z,99447.56
2022-10-01T05:19:28.937Z,99436.97
2022-10-01T05:22:00.220Z,99435.88
2022-10-01T05:24:31.495Z,99445.56
2022-10-01T05:27:02.809Z,99435.88
2022-10-01T05:29:34.985Z,99436.81
2022-10-01T05:32:06.382Z,99423.56
2022-10-01T05:34:38.910Z,99441.09
2022-10-01T05:37:10.837Z,99440.22
2022-10-01T05:39:42.176Z,99437.50
2022-10-01T05:42:13.412Z,99441.94
2022-10-01T05:44:47.453Z,99429.56
2022-10-01T05:47:20.531Z,99424.22
2022-10-01T05:49:51.846Z,99417.16
2022-10-01T05:52:23.077Z,99432.22
2022-10-01T05:54:54.482Z,99429.63
2022-10-01T05:57:25.817Z,99383.44
2022-10-01T05:59:57.916Z,99432.31
2022-10-01T06:02:29.916Z,99413.75
2022-10-01T06:05:01.265Z,99412.84
2022-10-01T06:07:32.625Z,99411.13
2022-10-01T06:10:04.200Z,99429.47
2022-10-01T06:12:35.452Z,99419.78
2022-10-01T06:15:07.386Z,99397.81
2022-10-01T06:17:44.979Z,99418.88
2022-10-01T06:20:18.945Z,99387.97
2022-10-01T06:22:55.596Z,99390.34
2022-10-01T06:25:29.615Z,99386.78
2022-10-01T06:28:01.796Z,99382.34
2022-10-01T06:30:36.163Z,99385.00
2022-10-01T06:33:12.977Z,99379.69
2022-10-01T06:35:49.714Z,99384.88
2022-10-01T06:38:22.828Z,99379.50
2022-10-01T06:40:56.131Z,99353.22
2022-10-01T06:43:29.120Z,99352.19
2022-10-01T06:46:02.893Z,99362.50
2022-10-01T06:48:36.280Z,99359.75
2022-10-01T06:51:08.563Z,99347.44
2022-10-01T06:53:39.960Z,99350.00
2022-10-01T06:56:11.212Z,99339.41
2022-10-01T06:58:43.180Z,99340.97
2022-10-01T07:01:16.822Z,99342.63
2022-10-01T07:03:48.083Z,99333.88
2022-10-01T07:06:19.796Z,99330.97
2022-10-01T07:08:51.208Z,99330.91
2022-10-01T07:11:22.439Z,99319.69
2022-10-01T07:13:54.782Z,99327.34
2022-10-01T07:16:26.339Z,99326.34
2022-10-01T07:18:57.745Z,99335.84
2022-10-01T07:21:29.041Z,99334.00
2022-10-01T07:24:00.377Z,99333.81
2022-10-01T07:26:31.976Z,99309.38
2022-10-01T07:29:03.333Z,99322.16
2022-10-01T07:31:34.945Z,99322.16
2022-10-01T07:34:06.346Z,99320.44
2022-10-01T07:36:37.629Z,99303.31
2022-10-01T07:39:09.035Z,99302.41
2022-10-01T07:41:42.728Z,99305.00
2022-10-01T07:44:14.109Z,99301.34
2022-10-01T07:46:47.149Z,99302.94
2022-10-01T07:49:18.511Z,99318.81
2022-10-01T07:51:49.766Z,99307.34
2022-10-01T07:54:25.304Z,99299.25
2022-10-01T07:56:56.732Z,99302.94
2022-10-01T07:59:27.967Z,99313.38
2022-10-01T08:01:59.426Z,99297.72
2022-10-01T08:04:49.570Z,99287.97
2022-10-01T08:07:21.162Z,99293.00
2022-10-01T08:09:52.451Z,99293.81
2022-10-01T08:12:24.360Z,99287.16
2022-10-01T08:14:55.907Z,99297.25
2022-10-01T08:17:29.530Z,99295.41
2022-10-01T08:20:01.393Z,99296.94
2022-10-01T08:22:33.305Z,99290.69
2022-10-01T08:25:05.102Z,99283.59
2022-10-01T08:27:36.934Z,99292.22
2022-10-01T08:30:08.738Z,99297.81
2022-10-01T08:32:40.099Z,99304.56
2022-10-01T08:35:11.726Z,99314.13
2022-10-01T08:37:42.986Z,99293.22
2022-10-01T08:40:14.953Z,99302.47
2022-10-01T08:43:02.560Z,99304.19
2022-10-01T08:45:47.424Z,99292.56
2022-10-01T08:48:37.248Z,99306.72
2022-10-01T08:51:15.740Z,99303.94
2022-10-01T08:53:59.673Z,99297.69
2022-10-01T08:56:35.599Z,99294.91
2022-10-01T08:59:35.897Z,99282.28
2022-10-01T09:02:25.311Z,99288.22
2022-10-01T09:05:01.988Z,99283.88
2022-10-01T09:07:36.432Z,99293.25
2022-10-01T09:10:27.822Z,99296.66
2022-10-01T09:13:36.600Z,99299.91
2022-10-01T09:16:15.011Z,99310.31
2022-10-01T09:19:08.366Z,99310.13
2022-10-01T09:21:56.534Z,99317.97
2022-10-01T09:24:43.023Z,99308.91
2022-10-01T09:27:21.277Z,99321.25
2022-10-01T09:29:58.418Z,99314.19
2022-10-01T09:32:41.241Z,99311.34
2022-10-01T09:35:44.133Z,99325.06
2022-10-01T09:38:33.253Z,99322.28
2022-10-01T09:41:04.854Z,99331.69
2022-10-01T09:43:41.422Z,99323.50
2022-10-01T09:46:17.023Z,99336.25
2022-10-01T09:49:12.818Z,99323.25
2022-10-01T09:51:52.371Z,99332.97
2022-10-01T09:54:44.595Z,99338.59
2022-10-01T09:57:24.516Z,99340.00
2022-10-01T10:00:21.101Z,99337.78
2022-10-01T10:02:54.715Z,99336.22
2022-10-01T10:05:29.188Z,99325.84
2022-10-01T10:08:11.048Z,99337.09
2022-10-01T10:11:09.785Z,99344.66
2022-10-01T10:13:49.486Z,99346.88
2022-10-01T10:16:27.000Z,99346.53
2022-10-01T10:19:02.849Z,99342.91
2022-10-01T10:21:37.860Z,99358.81
2022-10-01T10:24:24.904Z,99360.91
2022-10-01T10:26:58.406Z,99363.72
2022-10-01T10:29:32.416Z,99362.16
2022-10-01T10:32:18.876Z,99340.63
2022-10-01T10:34:51.995Z,99371.03
2022-10-01T10:37:32.615Z,99372.59
2022-10-01T10:40:08.190Z,99365.41
2022-10-01T10:42:53.978Z,99381.38
2022-10-01T10:45:37.932Z,99380.84
2022-10-01T10:48:17.121Z,99389.47
2022-10-01T10:50:48.513Z,99387.41
2022-10-01T10:53:22.534Z,99390.44
2022-10-01T10:56:02.281Z,99394.41
2022-10-01T10:58:42.441Z,99396.63
2022-10-01T11:01:17.957Z,99401.03
2022-10-01T11:03:56.057Z,99383.56
2022-10-01T11:06:28.053Z,99375.19
2022-10-01T11:09:02.461Z,99389.53
2022-10-01T11:12:02.733Z,99397.13
2022-10-01T11:15:07.241Z,99400.38
2022-10-01T11:17:57.281Z,99406.84
2022-10-01T11:20:40.337Z,99401.50
2022-10-01T11:23:34.075Z,99412.22
2022-10-01T11:26:18.036Z,99410.50
2022-10-01T11:28:55.242Z,99423.03
2022-10-01T11:31:50.956Z,99413.78
2022-10-01T11:34:43.735Z,99415.91
2022-10-01T11:37:29.244Z,99419.53
2022-10-01T11:40:13.139Z,99415.59
2022-10-01T11:42:47.104Z,99405.00
2022-10-01T11:45:25.711Z,99418.28
2022-10-01T11:48:25.818Z,99424.91
2022-10-01T11:51:05.366Z,99419.53
2022-10-01T11:53:51.076Z,99420.00
2022-10-01T11:56:50.293Z,99419.91
2022-10-01T11:59:37.439Z,99413.88
2022-10-01T12:02:20.694Z,99411.09
2022-10-01T12:05:18.385Z,99424.88
2022-10-01T12:07:58.750Z,99410.16
2022-10-01T12:10:42.932Z,99421.03
2022-10-01T12:13:34.298Z,99419.41
2022-10-01T12:16:10.348Z,99424.22
2022-10-01T12:18:44.803Z,99423.44
2022-10-01T12:21:23.813Z,99402.00
2022-10-01T12:24:03.745Z,99415.13
2022-10-01T12:26:44.094Z,99413.34
2022-10-01T12:29:37.774Z,99416.44
2022-10-01T12:32:54.151Z,99413.03
2022-10-01T12:35:48.748Z,99412.19
2022-10-01T12:39:04.600Z,99400.25
2022-10-01T12:42:03.808Z,99408.75
2022-10-01T12:44:53.424Z,99420.38
2022-10-01T12:47:53.762Z,99401.75
2022-10-01T12:50:37.352Z,99416.59
2022-10-01T12:53:20.444Z,99425.50
2022-10-01T12:56:06.201Z,99424.75
2022-10-01T12:58:51.200Z,99429.38
2022-10-01T13:01:37.515Z,99428.72
2022-10-01T13:04:35.871Z,99443.56
2022-10-01T13:07:27.623Z,99445.72
2022-10-01T13:10:35.408Z,99454.41
2022-10-01T13:13:22.069Z,99453.72
2022-10-01T13:16:07.869Z,99445.63
2022-10-01T13:19:19.579Z,99471.25
2022-10-01T13:22:21.136Z,99466.31
2022-10-01T13:25:06.355Z,99453.09
2022-10-01T13:27:51.325Z,99472.53
2022-10-01T13:30:24.789Z,99493.47
2022-10-01T13:33:03.223Z,99515.53
2022-10-01T13:35:39.387Z,99540.47
2022-10-01T13:38:14.950Z,99545.47
2022-10-01T13:40:57.396Z,99536.19
2022-10-01T13:43:30.472Z,99516.91
2022-10-01T13:46:10.836Z,99531.69
2022-10-01T13:48:48.006Z,99541.03
2022-10-01T13:51:20.214Z,99538.72
2022-10-01T13:54:00.596Z,99539.06
2022-10-01T13:56:37.158Z,99543.69
2022-10-01T13:59:38.849Z,99553.34
2022-10-01T14:02:30.378Z,99522.88
2022-10-01T14:05:17.153Z,99545.25
2022-10-01T14:07:55.063Z,99541.38
2022-10-01T14:10:56.810Z,99552.16
2022-10-01T14:13:48.900Z,99547.75
2022-10-01T14:16:20.529Z,99550.63
2022-10-01T14:18:52.003Z,99550.84
2022-10-01T14:21:58.870Z,99557.41
2022-10-01T14:24:30.153Z,99556.03
2022-10-01T14:27:17.221Z,99562.16
2022-10-01T14:30:11.092Z,99563.78
2022-10-01T14:33:03.829Z,99566.44
2022-10-01T14:35:52.670Z,99574.78
2022-10-01T14:38:24.966Z,99577.78
2022-10-01T14:40:56.292Z,99586.38
2022-10-01T14:43:30.552Z,99579.47
2022-10-01T14:46:04.553Z,99585.38
2022-10-01T14:48:40.362Z,99595.63
2022-10-01T14:51:29.837Z,99598.84
2022-10-01T14:54:01.325Z,99609.28
2022-10-01T14:56:33.923Z,99612.50
2022-10-01T14:59:21.430Z,99601.63
2022-10-01T15:01:58.421Z,99611.97
2022-10-01T15:04:29.870Z,99615.75
2022-10-01T15:07:11.758Z,99617.19
2022-10-01T15:09:46.898Z,99624.91
2022-10-01T15:12:21.512Z,99620.81
2022-10-01T15:14:54.385Z,99620.81
2022-10-01T15:17:27.052Z,99628.50
2022-10-01T15:19:58.867Z,99628.03
2022-10-01T15:22:30.342Z,99634.16
2022-10-01T15:25:02.171Z,99636.91
2022-10-01T15:27:33.789Z,99640.69
2022-10-01T15:30:06.156Z,99647.03
2022-10-01T15:32:37.561Z,99653.41
2022-10-01T15:35:13.226Z,99642.66
2022-10-01T15:37:50.085Z,99633.22
2022-10-01T15:40:35.251Z,99641.22
2022-10-01T15:43:24.001Z,99652.44
2022-10-01T15:46:04.691Z,99660.53
2022-10-01T15:48:36.607Z,99653.78
2022-10-01T15:51:27.333Z,99649.31
2022-10-01T15:54:07.087Z,99633.38
2022-10-01T15:56:41.604Z,99668.03
2022-10-01T15:59:18.630Z,99672.03
2022-10-01T16:01:49.992Z,99674.94
2022-10-01T16:04:21.534Z,99681.31
2022-10-01T16:06:53.219Z,99689.47
2022-10-01T16:09:28.441Z,99676.69
2022-10-01T16:12:02.709Z,99698.75
2022-10-01T16:14:43.650Z,99697.78
2022-10-01T16:17:17.971Z,99704.09
2022-10-01T16:19:52.186Z,99697.19
2022-10-01T16:22:29.867Z,99716.81
2022-10-01T16:25:26.049Z,99724.03
2022-10-01T16:28:00.775Z,99729.78
2022-10-01T16:30:34.070Z,99730.09
2022-10-01T16:33:06.929Z,99724.47
2022-10-01T16:35:40.620Z,99738.91
2022-10-01T16:38:12.511Z,99735.75
2022-10-01T16:40:47.675Z,99744.97
2022-10-01T16:43:24.165Z,99741.88
2022-10-01T16:45:56.244Z,99756.06
2022-10-01T16:48:28.274Z,99766.00
2022-10-01T16:50:59.831Z,99768.03
2022-10-01T16:53:31.380Z,99778.03
2022-10-01T16:56:02.672Z,99779.25
2022-10-01T16:58:34.148Z,99776.78
2022-10-01T17:01:09.813Z,99784.19
2022-10-01T17:03:41.570Z,99799.66
2022-10-01T17:06:12.853Z,99792.78
2022-10-01T17:08:44.319Z,99791.44
2022-10-01T17:11:15.744Z,99808.09
2022-10-01T17:13:47.005Z,99806.31
2022-10-01T17:16:24.421Z,99817.09
2022-10-01T17:18:55.953Z,99822.56
2022-10-01T17:21:28.268Z,99820.09
2022-10-01T17:24:00.520Z,99823.94
2022-10-01T17:26:32.177Z,99823.88
2022-10-01T17:29:03.861Z,99841.34
2022-10-01T17:31:40.706Z,99844.88
2022-10-01T17:34:13.050Z,99823.22
2022-10-01T17:36:45.658Z,99860.81
2022-10-01T17:39:16.997Z,99872.47
2022-10-01T17:41:48.320Z,99869.19
2022-10-01T17:44:19.587Z,99887.16
2022-10-01T17:46:50.830Z,99877.66
2022-10-01T17:49:22.138Z,99882.38
2022-10-01T17:51:53.514Z,99893.28
2022-10-01T17:54:25.430Z,99891.72
2022-10-01T17:56:56.775Z,99898.28
2022-10-01T17:59:30.954Z,99906.47
2022-10-01T18:02:13.925Z,99901.69
2022-10-01T18:04:53.940Z,99924.03
2022-10-01T18:07:26.230Z,99925.00
2022-10-01T18:09:57.487Z,99927.91
2022-10-01T18:12:28.776Z,99928.34
2022-10-01T18:15:00.749Z,99935.31
2022-10-01T18:17:33.265Z,99939.91
2022-10-01T18:20:08.549Z,99936.78
2022-10-01T18:22:40.665Z,99946.56
2022-10-01T18:25:15.853Z,99957.97
2022-10-01T18:27:49.959Z,99958.88
2022-10-01T18:30:21.567Z,99960.72
2022-10-01T18:32:57.073Z,99958.28
2022-10-01T18:35:34.634Z,99958.34
2022-10-01T18:38:21.842Z,99967.31
2022-10-01T18:41:06.435Z,99967.38
2022-10-01T18:43:39.796Z,99976.44
2022-10-01T18:46:24.054Z,99985.41
2022-10-01T18:49:14.358Z,99986.47
2022-10-01T18:51:52.056Z,99994.56
2022-10-01T18:55:01.318Z,99995.59
2022-10-01T18:58:00.148Z,99985.38
2022-10-01T19:00:45.768Z,99991.69
2022-10-01T19:04:00.153Z,100010.22
2022-10-01T19:06:45.529Z,100020.22
2022-10-01T19:09:22.590Z,100017.69
2022-10-01T19:12:29.587Z,100017.06
2022-10-01T19:15:19.758Z,100033.91
2022-10-01T19:18:07.691Z,100032.38
2022-10-01T19:20:54.452Z,100036.78
2022-10-01T19:24:06.427Z,100043.94
2022-10-01T19:26:52.321Z,100052.00
2022-10-01T19:29:37.235Z,100044.13
2022-10-01T19:32:22.787Z,100052.19
2022-10-01T19:35:11.969Z,100057.50
2022-10-01T19:37:51.428Z,100061.09
2022-10-01T19:40:45.911Z,100062.81
2022-10-01T19:43:33.632Z,100058.44
2022-10-01T19:46:32.026Z,100073.34
2022-10-01T19:49:25.906Z,100067.19
2022-10-01T19:52:00.476Z,100065.47
2022-10-01T19:54:33.890Z,100066.50
2022-10-01T19:57:18.050Z,100070.94
2022-10-01T19:59:54.731Z,100071.06
2022-10-01T20:02:33.626Z,100072.78
2022-10-01T20:05:16.688Z,100091.47
2022-10-01T20:08:16.258Z,100089.66
2022-10-01T20:11:14.467Z,100083.59
2022-10-01T20:14:07.078Z,100089.81
2022-10-01T20:16:51.440Z,100092.56
2022-10-01T20:19:38.587Z,100103.31
2022-10-01T20:22:41.048Z,100110.47
2022-10-01T20:25:29.476Z,100106.34
2022-10-01T20:28:19.146Z,100116.84
2022-10-01T20:31:15.946Z,100117.03
2022-10-01T20:34:04.122Z,100120.50
2022-10-01T20:37:14.165Z,100130.31
2022-10-01T20:39:59.977Z,100133.91
2022-10-01T20:42:38.888Z,100130.59
2022-10-01T20:45:26.314Z,100140.19
2022-10-01T20:48:03.730Z,100125.38
2022-10-01T20:50:43.746Z,100142.06
2022-10-01T20:53:22.041Z,100130.00
2022-10-01T20:56:04.225Z,100137.06
2022-10-01T20:58:44.488Z,100144.88
2022-10-01T21:01:24.844Z,100162.66
2022-10-01T21:04:11.122Z,100161.78
2022-10-01T21:06:47.281Z,100161.88
2022-10-01T21:09:26.525Z,100158.38
2022-10-01T21:12:11.471Z,100159.34
2022-10-01T21:14:52.524Z,100165.56
2022-10-01T21:17:53.351Z,100168.22
2022-10-01T21:20:57.463Z,100176.22
2022-10-01T21:23:50.684Z,100175.31
2022-10-01T21:26:25.381Z,100191.19
2022-10-01T21:29:15.669Z,100188.50
2022-10-01T21:32:05.884Z,100190.97
2022-10-01T21:35:07.337Z,100200.69
2022-10-01T21:37:51.716Z,100189.31
2022-10-01T21:40:47.488Z,100205.91
2022-10-01T21:43:35.981Z,100206.78
2022-10-01T21:46:22.223Z,100206.75
2022-10-01T21:49:08.993Z,100214.63
2022-10-01T21:51:47.310Z,100211.94
2022-10-01T21:54:49.008Z,100228.81
2022-10-01T21:57:48.197Z,100235.03
2022-10-01T22:00:26.418Z,100232.47
2022-10-01T22:03:22.390Z,100241.97
2022-10-01T22:05:59.828Z,100238.34
2022-10-01T22:09:18.973Z,100246.97
2022-10-01T22:11:55.855Z,100245.97
2022-10-01T22:14:28.417Z,100245.94
2022-10-01T22:17:14.557Z,100245.03
2022-10-01T22:19:49.922Z,100248.69
2022-10-01T22:22:25.613Z,100247.63
2022-10-01T22:24:59.622Z,100271.91
2022-10-01T22:27:44.097Z,100269.03
2022-10-01T22:30:25.317Z,100273.22
2022-10-01T22:33:06.159Z,100259.97
2022-10-01T22:36:02.202Z,100289.69
2022-10-01T22:38:48.199Z,100281.59
2022-10-01T22:41:28.305Z,100264.94
2022-10-01T22:44:06.475Z,100274.50
2022-10-01T22:46:46.741Z,100293.81
2022-10-01T22:49:36.020Z,100286.66
2022-10-01T22:52:28.917Z,100296.31
2022-10-01T22:55:09.020Z,100291.00
2022-10-01T22:58:06.149Z,100292.88
2022-10-01T23:00:44.951Z,100290.41
2022-10-01T23:03:31.737Z,100276.63
2022-10-01T23:06:10.703Z,100291.59
2022-10-01T23:09:14.526Z,100287.34
2022-10-01T23:12:00.066Z,100268.16
2022-10-01T23:14:40.403Z,100289.25
2022-10-01T23:17:22.702Z,100288.44
2022-10-01T23:20:16.201Z,100301.81
2022-10-01T23:23:16.442Z,100302.84
2022-10-01T23:26:21.952Z,100305.63
2022-10-01T23:29:12.011Z,100305.84
2022-10-01T23:31:55.542Z,100299.81
2022-10-01T23:34:50.518Z,100304.09
2022-10-01T23:37:33.681Z,100317.38
2022-10-01T23:40:11.116Z,100308.38
2022-10-01T23:42:45.884Z,100309.19
2022-10-01T23:45:26.351Z,100304.88
2022-10-01T23:48:35.520Z,100314.81
2022-10-01T23:51:19.029Z,100316.78
2022-10-01T23:54:27.387Z,100328.44
2022-10-01T23:57:32.383Z,100334.78
